sensor_id;sensor_type;location;lat;lon;timestamp;P1;durP1;ratioP1;P2;durP2;ratioP2
9775;SDS011;4927;52.472;13.108;2023-05-10T00:00:15;5.68;;;5.37;;
9775;SDS011;4927;52.472;13.108;2023-05-10T00:01:17;5.75;;;5.15;;
9775;SDS011;4927;52.472;13.108;2023-05-10T00:02:19;5.10;;;4.80;;
9775;SDS011;4927;52.472;13.108;2023-05-10T00:03:21;4.80;;;4.40;;
9775;SDS011;4927;52.472;13.108;2023-05-10T00:04:30;6.32;;;5.75;;
9775;SDS011;4927;52.472;13.108;2023-05-10T00:05:31;5.32;;;5.00;;
9775;SDS011;4927;52.472;13.108;2023-05-10T00:06:33;8.18;;;4.80;;
9775;SDS011;4927;52.472;13.108;2023-05-10T00:07:35;5.18;;;4.78;;
9775;SDS011;4927;52.472;13.108;2023-05-10T00:08:37;4.90;;;4.70;;
9775;SDS011;4927;52.472;13.108;2023-05-10T00:09:38;5.12;;;4.82;;
9775;SDS011;4927;52.472;13.108;2023-05-10T00:10:40;5.57;;;5.28;;
9775;SDS011;4927;52.472;13.108;2023-05-10T00:11:42;5.25;;;4.95;;
9775;SDS011;4927;52.472;13.108;2023-05-10T00:12:44;4.90;;;4.70;;
9775;SDS011;4927;52.472;13.108;2023-05-10T00:13:45;5.05;;;4.85;;
9775;SDS011;4927;52.472;13.108;2023-05-10T00:14:47;5.22;;;5.03;;
9775;SDS011;4927;52.472;13.108;2023-05-10T00:15:50;5.43;;;5.20;;
9775;SDS011;4927;52.472;13.108;2023-05-10T00:16:52;5.12;;;4.93;;
9775;SDS011;4927;52.472;13.108;2023-05-10T00:17:54;4.28;;;4.03;;
9775;SDS011;4927;52.472;13.108;2023-05-10T00:18:56;5.07;;;4.82;;
9775;SDS011;4927;52.472;13.108;2023-05-10T00:19:57;4.90;;;4.70;;
9775;SDS011;4927;52.472;13.108;2023-05-10T00:20:59;6.85;;;4.93;;
9775;SDS011;4927;52.472;13.108;2023-05-10T00:22:01;5.78;;;5.37;;
9775;SDS011;4927;52.472;13.108;2023-05-10T00:23:03;5.60;;;5.40;;
9775;SDS011;4927;52.472;13.108;2023-05-10T00:24:05;5.55;;;5.00;;
9775;SDS011;4927;52.472;13.108;2023-05-10T00:25:08;5.43;;;5.15;;
9775;SDS011;4927;52.472;13.108;2023-05-10T00:26:11;5.20;;;4.78;;
9775;SDS011;4927;52.472;13.108;2023-05-10T00:27:12;5.03;;;4.82;;
9775;SDS011;4927;52.472;13.108;2023-05-10T00:28:14;5.60;;;5.15;;
9775;SDS011;4927;52.472;13.108;2023-05-10T00:29:16;5.87;;;5.37;;
9775;SDS011;4927;52.472;13.108;2023-05-10T00:30:18;4.87;;;4.62;;
9775;SDS011;4927;52.472;13.108;2023-05-10T00:31:20;4.93;;;4.72;;
9775;SDS011;4927;52.472;13.108;2023-05-10T00:32:21;5.72;;;5.00;;
9775;SDS011;4927;52.472;13.108;2023-05-10T00:33:23;6.72;;;5.03;;
9775;SDS011;4927;52.472;13.108;2023-05-10T00:34:25;5.32;;;5.00;;
9775;SDS011;4927;52.472;13.108;2023-05-10T00:35:27;5.70;;;5.30;;
9775;SDS011;4927;52.472;13.108;2023-05-10T00:36:28;7.85;;;5.00;;
9775;SDS011;4927;52.472;13.108;2023-05-10T00:37:30;5.12;;;4.93;;
9775;SDS011;4927;52.472;13.108;2023-05-10T00:38:32;4.80;;;4.40;;
9775;SDS011;4927;52.472;13.108;2023-05-10T00:39:34;8.52;;;5.18;;
9775;SDS011;4927;52.472;13.108;2023-05-10T00:40:36;5.57;;;5.07;;
9775;SDS011;4927;52.472;13.108;2023-05-10T00:41:37;4.95;;;4.75;;
9775;SDS011;4927;52.472;13.108;2023-05-10T00:42:39;5.03;;;4.65;;
9775;SDS011;4927;52.472;13.108;2023-05-10T00:43:41;4.90;;;4.60;;
9775;SDS011;4927;52.472;13.108;2023-05-10T00:44:43;6.18;;;5.75;;
9775;SDS011;4927;52.472;13.108;2023-05-10T00:45:44;5.57;;;5.37;;
9775;SDS011;4927;52.472;13.108;2023-05-10T00:46:48;4.90;;;4.70;;
9775;SDS011;4927;52.472;13.108;2023-05-10T00:47:49;4.78;;;4.47;;
9775;SDS011;4927;52.472;13.108;2023-05-10T00:48:51;5.70;;;5.28;;
9775;SDS011;4927;52.472;13.108;2023-05-10T00:49:53;5.35;;;5.05;;
9775;SDS011;4927;52.472;13.108;2023-05-10T00:50:55;5.82;;;5.40;;
9775;SDS011;4927;52.472;13.108;2023-05-10T00:51:56;4.87;;;4.68;;
9775;SDS011;4927;52.472;13.108;2023-05-10T00:52:59;5.50;;;5.20;;
9775;SDS011;4927;52.472;13.108;2023-05-10T00:54:01;5.00;;;4.80;;
9775;SDS011;4927;52.472;13.108;2023-05-10T00:55:04;5.50;;;5.20;;
9775;SDS011;4927;52.472;13.108;2023-05-10T00:56:08;5.50;;;5.00;;
9775;SDS011;4927;52.472;13.108;2023-05-10T00:57:09;7.47;;;5.05;;
9775;SDS011;4927;52.472;13.108;2023-05-10T00:58:11;6.97;;;4.10;;
9775;SDS011;4927;52.472;13.108;2023-05-10T00:59:13;5.37;;;5.07;;
9775;SDS011;4927;52.472;13.108;2023-05-10T01:00:16;5.50;;;5.15;;
9775;SDS011;4927;52.472;13.108;2023-05-10T01:01:18;6.40;;;5.18;;
9775;SDS011;4927;52.472;13.108;2023-05-10T01:02:19;4.80;;;4.65;;
9775;SDS011;4927;52.472;13.108;2023-05-10T01:03:21;4.72;;;4.53;;
9775;SDS011;4927;52.472;13.108;2023-05-10T01:04:23;4.22;;;4.12;;
9775;SDS011;4927;52.472;13.108;2023-05-10T01:05:26;5.60;;;5.10;;
9775;SDS011;4927;52.472;13.108;2023-05-10T01:06:27;4.65;;;4.55;;
9775;SDS011;4927;52.472;13.108;2023-05-10T01:07:30;5.75;;;5.25;;
9775;SDS011;4927;52.472;13.108;2023-05-10T01:08:32;6.25;;;4.68;;
9775;SDS011;4927;52.472;13.108;2023-05-10T01:09:33;4.82;;;4.62;;
9775;SDS011;4927;52.472;13.108;2023-05-10T01:10:35;5.40;;;5.20;;
9775;SDS011;4927;52.472;13.108;2023-05-10T01:11:37;3.95;;;3.85;;
9775;SDS011;4927;52.472;13.108;2023-05-10T01:12:40;4.20;;;4.05;;
9775;SDS011;4927;52.472;13.108;2023-05-10T01:13:41;5.22;;;5.03;;
9775;SDS011;4927;52.472;13.108;2023-05-10T01:14:43;4.78;;;4.57;;
9775;SDS011;4927;52.472;13.108;2023-05-10T01:15:45;6.90;;;4.85;;
9775;SDS011;4927;52.472;13.108;2023-05-10T01:16:47;5.40;;;5.20;;
9775;SDS011;4927;52.472;13.108;2023-05-10T01:17:49;4.80;;;4.60;;
9775;SDS011;4927;52.472;13.108;2023-05-10T01:18:51;5.07;;;4.78;;
9775;SDS011;4927;52.472;13.108;2023-05-10T01:19:53;4.65;;;4.40;;
9775;SDS011;4927;52.472;13.108;2023-05-10T01:21:00;5.70;;;5.50;;
9775;SDS011;4927;52.472;13.108;2023-05-10T01:22:35;8.82;;;5.80;;
9775;SDS011;4927;52.472;13.108;2023-05-10T01:24:35;7.55;;;5.00;;
9775;SDS011;4927;52.472;13.108;2023-05-10T01:25:52;6.30;;;5.93;;
9775;SDS011;4927;52.472;13.108;2023-05-10T01:27:25;5.75;;;5.32;;
9775;SDS011;4927;52.472;13.108;2023-05-10T01:28:49;5.00;;;4.80;;
9775;SDS011;4927;52.472;13.108;2023-05-10T01:30:20;5.72;;;5.53;;
9775;SDS011;4927;52.472;13.108;2023-05-10T01:33:01;5.22;;;5.03;;
9775;SDS011;4927;52.472;13.108;2023-05-10T01:34:07;8.38;;;6.55;;
9775;SDS011;4927;52.472;13.108;2023-05-10T01:35:10;5.57;;;5.28;;
9775;SDS011;4927;52.472;13.108;2023-05-10T01:36:31;4.60;;;4.40;;
9775;SDS011;4927;52.472;13.108;2023-05-10T01:37:37;5.87;;;5.55;;
9775;SDS011;4927;52.472;13.108;2023-05-10T01:39:11;5.95;;;5.45;;
9775;SDS011;4927;52.472;13.108;2023-05-10T01:40:01;11.02;;;6.57;;
9775;SDS011;4927;52.472;13.108;2023-05-10T01:41:18;5.87;;;5.40;;
9775;SDS011;4927;52.472;13.108;2023-05-10T01:42:20;6.15;;;5.60;;
9775;SDS011;4927;52.472;13.108;2023-05-10T01:43:22;5.40;;;5.20;;
9775;SDS011;4927;52.472;13.108;2023-05-10T01:44:31;5.65;;;5.35;;
9775;SDS011;4927;52.472;13.108;2023-05-10T01:45:33;5.85;;;5.45;;
9775;SDS011;4927;52.472;13.108;2023-05-10T01:46:35;5.72;;;5.43;;
9775;SDS011;4927;52.472;13.108;2023-05-10T01:47:38;5.53;;;5.22;;
9775;SDS011;4927;52.472;13.108;2023-05-10T01:48:40;5.75;;;5.50;;
9775;SDS011;4927;52.472;13.108;2023-05-10T01:49:43;5.62;;;5.43;;
9775;SDS011;4927;52.472;13.108;2023-05-10T01:50:44;5.78;;;5.37;;
9775;SDS011;4927;52.472;13.108;2023-05-10T01:51:46;5.57;;;5.28;;
9775;SDS011;4927;52.472;13.108;2023-05-10T01:52:51;5.53;;;5.22;;
9775;SDS011;4927;52.472;13.108;2023-05-10T01:53:56;6.03;;;5.62;;
9775;SDS011;4927;52.472;13.108;2023-05-10T01:54:56;6.57;;;5.20;;
9775;SDS011;4927;52.472;13.108;2023-05-10T01:55:57;5.68;;;5.28;;
9775;SDS011;4927;52.472;13.108;2023-05-10T01:57:00;5.50;;;5.25;;
9775;SDS011;4927;52.472;13.108;2023-05-10T01:58:03;5.25;;;5.05;;
9775;SDS011;4927;52.472;13.108;2023-05-10T01:59:10;6.00;;;5.47;;
9775;SDS011;4927;52.472;13.108;2023-05-10T02:00:10;5.95;;;5.50;;
9775;SDS011;4927;52.472;13.108;2023-05-10T02:01:13;5.72;;;5.43;;
9775;SDS011;4927;52.472;13.108;2023-05-10T02:02:14;6.00;;;5.50;;
9775;SDS011;4927;52.472;13.108;2023-05-10T02:03:16;6.30;;;5.90;;
9775;SDS011;4927;52.472;13.108;2023-05-10T02:04:18;5.80;;;5.30;;
9775;SDS011;4927;52.472;13.108;2023-05-10T02:05:20;5.35;;;4.95;;
9775;SDS011;4927;52.472;13.108;2023-05-10T02:06:22;5.40;;;5.20;;
9775;SDS011;4927;52.472;13.108;2023-05-10T02:07:24;6.60;;;6.07;;
9775;SDS011;4927;52.472;13.108;2023-05-10T02:08:26;6.82;;;6.32;;
9775;SDS011;4927;52.472;13.108;2023-05-10T02:09:28;6.12;;;5.70;;
9775;SDS011;4927;52.472;13.108;2023-05-10T02:10:30;5.53;;;5.22;;
9775;SDS011;4927;52.472;13.108;2023-05-10T02:11:32;6.35;;;5.95;;
9775;SDS011;4927;52.472;13.108;2023-05-10T02:12:35;6.25;;;5.95;;
9775;SDS011;4927;52.472;13.108;2023-05-10T02:13:37;10.30;;;5.70;;
9775;SDS011;4927;52.472;13.108;2023-05-10T02:14:39;5.60;;;5.30;;
9775;SDS011;4927;52.472;13.108;2023-05-10T02:15:41;5.55;;;5.25;;
9775;SDS011;4927;52.472;13.108;2023-05-10T02:16:43;8.32;;;5.90;;
9775;SDS011;4927;52.472;13.108;2023-05-10T02:17:45;5.85;;;5.45;;
9775;SDS011;4927;52.472;13.108;2023-05-10T02:18:47;6.37;;;5.97;;
9775;SDS011;4927;52.472;13.108;2023-05-10T02:19:48;6.20;;;5.90;;
9775;SDS011;4927;52.472;13.108;2023-05-10T02:20:50;5.90;;;5.70;;
9775;SDS011;4927;52.472;13.108;2023-05-10T02:21:52;6.15;;;5.53;;
9775;SDS011;4927;52.472;13.108;2023-05-10T02:22:54;6.25;;;5.90;;
9775;SDS011;4927;52.472;13.108;2023-05-10T02:23:56;6.15;;;5.55;;
9775;SDS011;4927;52.472;13.108;2023-05-10T02:24:58;5.85;;;5.50;;
9775;SDS011;4927;52.472;13.108;2023-05-10T02:26:00;6.10;;;5.70;;
9775;SDS011;4927;52.472;13.108;2023-05-10T02:27:02;6.45;;;5.87;;
9775;SDS011;4927;52.472;13.108;2023-05-10T02:28:04;6.20;;;5.80;;
9775;SDS011;4927;52.472;13.108;2023-05-10T02:29:06;5.85;;;5.55;;
9775;SDS011;4927;52.472;13.108;2023-05-10T02:30:08;6.15;;;5.85;;
9775;SDS011;4927;52.472;13.108;2023-05-10T02:31:10;6.90;;;6.07;;
9775;SDS011;4927;52.472;13.108;2023-05-10T02:32:12;5.40;;;5.20;;
9775;SDS011;4927;52.472;13.108;2023-05-10T02:33:13;7.00;;;6.47;;
9775;SDS011;4927;52.472;13.108;2023-05-10T02:34:15;5.80;;;5.50;;
9775;SDS011;4927;52.472;13.108;2023-05-10T02:35:17;6.70;;;6.20;;
9775;SDS011;4927;52.472;13.108;2023-05-10T02:36:19;6.03;;;5.60;;
9775;SDS011;4927;52.472;13.108;2023-05-10T02:37:21;5.95;;;5.65;;
9775;SDS011;4927;52.472;13.108;2023-05-10T02:38:23;6.10;;;5.80;;
9775;SDS011;4927;52.472;13.108;2023-05-10T02:39:25;6.03;;;5.82;;
9775;SDS011;4927;52.472;13.108;2023-05-10T02:40:27;6.10;;;5.68;;
9775;SDS011;4927;52.472;13.108;2023-05-10T02:41:28;6.37;;;5.93;;
9775;SDS011;4927;52.472;13.108;2023-05-10T02:42:31;6.30;;;5.90;;
9775;SDS011;4927;52.472;13.108;2023-05-10T02:43:32;7.45;;;6.90;;
9775;SDS011;4927;52.472;13.108;2023-05-10T02:44:34;6.15;;;5.75;;
9775;SDS011;4927;52.472;13.108;2023-05-10T02:45:36;6.12;;;5.82;;
9775;SDS011;4927;52.472;13.108;2023-05-10T02:46:38;6.10;;;5.90;;
9775;SDS011;4927;52.472;13.108;2023-05-10T02:47:40;5.85;;;5.55;;
9775;SDS011;4927;52.472;13.108;2023-05-10T02:48:41;5.72;;;5.53;;
9775;SDS011;4927;52.472;13.108;2023-05-10T02:49:43;5.65;;;5.45;;
9775;SDS011;4927;52.472;13.108;2023-05-10T02:50:45;8.23;;;5.32;;
9775;SDS011;4927;52.472;13.108;2023-05-10T02:51:49;6.57;;;6.05;;
9775;SDS011;4927;52.472;13.108;2023-05-10T02:52:50;5.95;;;5.65;;
9775;SDS011;4927;52.472;13.108;2023-05-10T02:53:51;6.25;;;5.75;;
9775;SDS011;4927;52.472;13.108;2023-05-10T02:54:55;7.03;;;6.53;;
9775;SDS011;4927;52.472;13.108;2023-05-10T02:55:57;6.32;;;5.95;;
9775;SDS011;4927;52.472;13.108;2023-05-10T02:56:58;6.70;;;6.30;;
9775;SDS011;4927;52.472;13.108;2023-05-10T02:58:01;7.57;;;5.72;;
9775;SDS011;4927;52.472;13.108;2023-05-10T02:59:03;6.53;;;6.03;;
9775;SDS011;4927;52.472;13.108;2023-05-10T03:00:06;7.87;;;5.70;;
9775;SDS011;4927;52.472;13.108;2023-05-10T03:01:09;7.20;;;6.55;;
9775;SDS011;4927;52.472;13.108;2023-05-10T03:02:12;6.72;;;6.30;;
9775;SDS011;4927;52.472;13.108;2023-05-10T03:03:13;6.32;;;5.82;;
9775;SDS011;4927;52.472;13.108;2023-05-10T03:04:16;5.93;;;5.62;;
9775;SDS011;4927;52.472;13.108;2023-05-10T03:05:18;6.40;;;6.10;;
9775;SDS011;4927;52.472;13.108;2023-05-10T03:06:19;5.47;;;5.20;;
9775;SDS011;4927;52.472;13.108;2023-05-10T03:07:21;6.28;;;5.93;;
9775;SDS011;4927;52.472;13.108;2023-05-10T03:08:23;7.45;;;5.82;;
9775;SDS011;4927;52.472;13.108;2023-05-10T03:09:25;7.10;;;5.90;;
9775;SDS011;4927;52.472;13.108;2023-05-10T03:10:27;6.20;;;5.70;;
9775;SDS011;4927;52.472;13.108;2023-05-10T03:11:36;6.80;;;6.40;;
9775;SDS011;4927;52.472;13.108;2023-05-10T03:13:01;6.78;;;6.18;;
9775;SDS011;4927;52.472;13.108;2023-05-10T03:14:32;5.85;;;5.37;;
9775;SDS011;4927;52.472;13.108;2023-05-10T03:16:10;7.55;;;6.68;;
9775;SDS011;4927;52.472;13.108;2023-05-10T03:17:18;6.47;;;5.90;;
9775;SDS011;4927;52.472;13.108;2023-05-10T03:18:29;6.90;;;6.40;;
9775;SDS011;4927;52.472;13.108;2023-05-10T03:19:32;8.82;;;5.57;;
9775;SDS011;4927;52.472;13.108;2023-05-10T03:20:36;6.22;;;5.82;;
9775;SDS011;4927;52.472;13.108;2023-05-10T03:21:37;6.82;;;6.40;;
9775;SDS011;4927;52.472;13.108;2023-05-10T03:22:41;6.53;;;6.15;;
9775;SDS011;4927;52.472;13.108;2023-05-10T03:23:44;6.28;;;5.97;;
9775;SDS011;4927;52.472;13.108;2023-05-10T03:24:48;7.37;;;6.20;;
9775;SDS011;4927;52.472;13.108;2023-05-10T03:25:49;7.15;;;6.62;;
9775;SDS011;4927;52.472;13.108;2023-05-10T03:26:51;6.45;;;6.15;;
9775;SDS011;4927;52.472;13.108;2023-05-10T03:27:53;6.70;;;6.40;;
9775;SDS011;4927;52.472;13.108;2023-05-10T03:28:55;10.07;;;6.15;;
9775;SDS011;4927;52.472;13.108;2023-05-10T03:29:57;6.25;;;5.82;;
9775;SDS011;4927;52.472;13.108;2023-05-10T03:30:59;6.12;;;5.82;;
9775;SDS011;4927;52.472;13.108;2023-05-10T03:32:01;8.23;;;6.35;;
9775;SDS011;4927;52.472;13.108;2023-05-10T03:33:04;6.70;;;6.15;;
9775;SDS011;4927;52.472;13.108;2023-05-10T03:34:05;6.97;;;6.50;;
9775;SDS011;4927;52.472;13.108;2023-05-10T03:35:09;5.90;;;5.70;;
9775;SDS011;4927;52.472;13.108;2023-05-10T03:36:11;6.00;;;5.70;;
9775;SDS011;4927;52.472;13.108;2023-05-10T03:37:12;5.95;;;5.60;;
9775;SDS011;4927;52.472;13.108;2023-05-10T03:38:14;6.22;;;5.87;;
9775;SDS011;4927;52.472;13.108;2023-05-10T03:39:16;6.90;;;6.37;;
9775;SDS011;4927;52.472;13.108;2023-05-10T03:40:18;6.35;;;5.82;;
9775;SDS011;4927;52.472;13.108;2023-05-10T03:41:20;6.20;;;5.75;;
9775;SDS011;4927;52.472;13.108;2023-05-10T03:42:22;5.87;;;5.47;;
9775;SDS011;4927;52.472;13.108;2023-05-10T03:43:25;7.80;;;6.97;;
9775;SDS011;4927;52.472;13.108;2023-05-10T03:44:28;7.18;;;6.62;;
9775;SDS011;4927;52.472;13.108;2023-05-10T03:45:30;6.97;;;6.62;;
9775;SDS011;4927;52.472;13.108;2023-05-10T03:46:31;6.78;;;5.70;;
9775;SDS011;4927;52.472;13.108;2023-05-10T03:47:34;6.32;;;5.82;;
9775;SDS011;4927;52.472;13.108;2023-05-10T03:48:37;5.53;;;5.32;;
9775;SDS011;4927;52.472;13.108;2023-05-10T03:49:38;6.82;;;6.25;;
9775;SDS011;4927;52.472;13.108;2023-05-10T03:50:40;8.60;;;6.25;;
9775;SDS011;4927;52.472;13.108;2023-05-10T03:51:42;7.32;;;6.90;;
9775;SDS011;4927;52.472;13.108;2023-05-10T03:52:44;7.32;;;6.03;;
9775;SDS011;4927;52.472;13.108;2023-05-10T03:53:45;6.60;;;6.05;;
9775;SDS011;4927;52.472;13.108;2023-05-10T03:54:47;5.80;;;5.50;;
9775;SDS011;4927;52.472;13.108;2023-05-10T03:55:50;8.50;;;5.90;;
9775;SDS011;4927;52.472;13.108;2023-05-10T03:56:51;5.60;;;5.30;;
9775;SDS011;4927;52.472;13.108;2023-05-10T03:57:53;6.25;;;5.95;;
9775;SDS011;4927;52.472;13.108;2023-05-10T03:58:55;6.70;;;6.10;;
9775;SDS011;4927;52.472;13.108;2023-05-10T03:59:57;7.57;;;6.97;;
9775;SDS011;4927;52.472;13.108;2023-05-10T04:00:59;6.62;;;6.12;;
9775;SDS011;4927;52.472;13.108;2023-05-10T04:02:01;6.90;;;6.30;;
9775;SDS011;4927;52.472;13.108;2023-05-10T04:03:03;5.37;;;5.18;;
9775;SDS011;4927;52.472;13.108;2023-05-10T04:04:05;6.32;;;6.03;;
9775;SDS011;4927;52.472;13.108;2023-05-10T04:05:08;6.70;;;6.20;;
9775;SDS011;4927;52.472;13.108;2023-05-10T04:06:10;5.45;;;5.25;;
9775;SDS011;4927;52.472;13.108;2023-05-10T04:07:12;5.82;;;5.47;;
9775;SDS011;4927;52.472;13.108;2023-05-10T04:08:13;6.05;;;5.70;;
9775;SDS011;4927;52.472;13.108;2023-05-10T04:09:15;8.95;;;5.47;;
9775;SDS011;4927;52.472;13.108;2023-05-10T04:10:17;5.90;;;5.50;;
9775;SDS011;4927;52.472;13.108;2023-05-10T04:11:19;6.05;;;5.65;;
9775;SDS011;4927;52.472;13.108;2023-05-10T04:12:21;6.78;;;6.32;;
9775;SDS011;4927;52.472;13.108;2023-05-10T04:13:23;6.28;;;5.43;;
9775;SDS011;4927;52.472;13.108;2023-05-10T04:14:26;6.95;;;6.30;;
9775;SDS011;4927;52.472;13.108;2023-05-10T04:15:28;5.87;;;5.45;;
9775;SDS011;4927;52.472;13.108;2023-05-10T04:16:30;5.97;;;5.68;;
9775;SDS011;4927;52.472;13.108;2023-05-10T04:17:32;6.07;;;5.70;;
9775;SDS011;4927;52.472;13.108;2023-05-10T04:18:34;5.97;;;5.28;;
9775;SDS011;4927;52.472;13.108;2023-05-10T04:19:35;7.95;;;5.53;;
9775;SDS011;4927;52.472;13.108;2023-05-10T04:20:38;7.22;;;5.80;;
9775;SDS011;4927;52.472;13.108;2023-05-10T04:21:40;5.25;;;5.07;;
9775;SDS011;4927;52.472;13.108;2023-05-10T04:22:43;5.43;;;5.05;;
9775;SDS011;4927;52.472;13.108;2023-05-10T04:23:45;6.00;;;5.70;;
9775;SDS011;4927;52.472;13.108;2023-05-10T04:24:46;6.10;;;5.60;;
9775;SDS011;4927;52.472;13.108;2023-05-10T04:25:48;5.22;;;5.03;;
9775;SDS011;4927;52.472;13.108;2023-05-10T04:26:50;7.32;;;5.60;;
9775;SDS011;4927;52.472;13.108;2023-05-10T04:27:52;5.32;;;5.12;;
9775;SDS011;4927;52.472;13.108;2023-05-10T04:28:56;5.78;;;5.45;;
9775;SDS011;4927;52.472;13.108;2023-05-10T04:29:58;6.20;;;5.90;;
9775;SDS011;4927;52.472;13.108;2023-05-10T04:31:03;8.50;;;6.22;;
9775;SDS011;4927;52.472;13.108;2023-05-10T04:32:06;5.55;;;5.25;;
9775;SDS011;4927;52.472;13.108;2023-05-10T04:33:08;5.22;;;5.03;;
9775;SDS011;4927;52.472;13.108;2023-05-10T04:34:09;5.60;;;5.10;;
9775;SDS011;4927;52.472;13.108;2023-05-10T04:35:11;5.85;;;5.55;;
9775;SDS011;4927;52.472;13.108;2023-05-10T04:36:13;6.10;;;5.80;;
9775;SDS011;4927;52.472;13.108;2023-05-10T04:37:15;5.62;;;5.30;;
9775;SDS011;4927;52.472;13.108;2023-05-10T04:38:16;7.05;;;5.40;;
9775;SDS011;4927;52.472;13.108;2023-05-10T04:39:19;5.32;;;4.93;;
9775;SDS011;4927;52.472;13.108;2023-05-10T04:40:21;9.57;;;5.70;;
9775;SDS011;4927;52.472;13.108;2023-05-10T04:41:22;6.50;;;6.05;;
9775;SDS011;4927;52.472;13.108;2023-05-10T04:42:25;6.28;;;5.78;;
9775;SDS011;4927;52.472;13.108;2023-05-10T04:43:27;6.18;;;5.60;;
9775;SDS011;4927;52.472;13.108;2023-05-10T04:44:29;6.00;;;5.70;;
9775;SDS011;4927;52.472;13.108;2023-05-10T04:45:30;5.87;;;5.60;;
9775;SDS011;4927;52.472;13.108;2023-05-10T04:46:32;5.65;;;5.35;;
9775;SDS011;4927;52.472;13.108;2023-05-10T04:47:34;5.32;;;5.12;;
9775;SDS011;4927;52.472;13.108;2023-05-10T04:48:36;6.05;;;5.75;;
9775;SDS011;4927;52.472;13.108;2023-05-10T04:49:38;5.68;;;5.28;;
9775;SDS011;4927;52.472;13.108;2023-05-10T04:50:41;5.82;;;5.43;;
9775;SDS011;4927;52.472;13.108;2023-05-10T04:51:43;5.25;;;4.95;;
9775;SDS011;4927;52.472;13.108;2023-05-10T04:52:45;5.85;;;5.35;;
9775;SDS011;4927;52.472;13.108;2023-05-10T04:53:47;5.72;;;5.43;;
9775;SDS011;4927;52.472;13.108;2023-05-10T04:54:48;4.75;;;4.50;;
9775;SDS011;4927;52.472;13.108;2023-05-10T04:55:51;6.22;;;5.87;;
9775;SDS011;4927;52.472;13.108;2023-05-10T04:56:53;5.10;;;4.80;;
9775;SDS011;4927;52.472;13.108;2023-05-10T04:57:55;5.22;;;5.03;;
9775;SDS011;4927;52.472;13.108;2023-05-10T04:58:57;5.55;;;5.15;;
9775;SDS011;4927;52.472;13.108;2023-05-10T04:59:59;11.48;;;10.35;;
9775;SDS011;4927;52.472;13.108;2023-05-10T05:01:05;9.13;;;5.68;;
9775;SDS011;4927;52.472;13.108;2023-05-10T05:02:07;6.10;;;5.50;;
9775;SDS011;4927;52.472;13.108;2023-05-10T05:03:10;7.37;;;5.00;;
9775;SDS011;4927;52.472;13.108;2023-05-10T05:04:11;6.25;;;5.75;;
9775;SDS011;4927;52.472;13.108;2023-05-10T05:05:13;5.70;;;5.40;;
9775;SDS011;4927;52.472;13.108;2023-05-10T05:06:15;4.12;;;3.92;;
9775;SDS011;4927;52.472;13.108;2023-05-10T05:07:17;5.35;;;4.80;;
9775;SDS011;4927;52.472;13.108;2023-05-10T05:08:18;8.38;;;5.93;;
9775;SDS011;4927;52.472;13.108;2023-05-10T05:09:20;4.95;;;4.60;;
9775;SDS011;4927;52.472;13.108;2023-05-10T05:10:22;4.68;;;4.47;;
9775;SDS011;4927;52.472;13.108;2023-05-10T05:11:24;7.85;;;5.15;;
9775;SDS011;4927;52.472;13.108;2023-05-10T05:12:26;4.78;;;4.53;;
9775;SDS011;4927;52.472;13.108;2023-05-10T05:13:28;7.30;;;4.90;;
9775;SDS011;4927;52.472;13.108;2023-05-10T05:14:29;5.15;;;4.85;;
9775;SDS011;4927;52.472;13.108;2023-05-10T05:15:31;5.20;;;4.90;;
9775;SDS011;4927;52.472;13.108;2023-05-10T05:16:33;5.72;;;5.22;;
9775;SDS011;4927;52.472;13.108;2023-05-10T05:17:35;5.47;;;4.97;;
9775;SDS011;4927;52.472;13.108;2023-05-10T05:18:43;4.90;;;4.50;;
9775;SDS011;4927;52.472;13.108;2023-05-10T05:19:45;4.87;;;4.53;;
9775;SDS011;4927;52.472;13.108;2023-05-10T05:20:47;4.82;;;4.45;;
9775;SDS011;4927;52.472;13.108;2023-05-10T05:21:48;6.22;;;5.72;;
9775;SDS011;4927;52.472;13.108;2023-05-10T05:22:50;5.50;;;4.70;;
9775;SDS011;4927;52.472;13.108;2023-05-10T05:23:52;4.85;;;4.43;;
9775;SDS011;4927;52.472;13.108;2023-05-10T05:24:55;10.90;;;4.62;;
9775;SDS011;4927;52.472;13.108;2023-05-10T05:25:57;5.40;;;4.90;;
9775;SDS011;4927;52.472;13.108;2023-05-10T05:26:58;6.62;;;4.97;;
9775;SDS011;4927;52.472;13.108;2023-05-10T05:28:08;4.65;;;4.45;;
9775;SDS011;4927;52.472;13.108;2023-05-10T05:29:09;5.70;;;5.20;;
9775;SDS011;4927;52.472;13.108;2023-05-10T05:30:12;5.35;;;4.57;;
9775;SDS011;4927;52.472;13.108;2023-05-10T05:31:14;4.32;;;4.12;;
9775;SDS011;4927;52.472;13.108;2023-05-10T05:32:16;4.47;;;4.28;;
9775;SDS011;4927;52.472;13.108;2023-05-10T05:33:18;4.68;;;4.47;;
9775;SDS011;4927;52.472;13.108;2023-05-10T05:34:20;4.28;;;4.07;;
9775;SDS011;4927;52.472;13.108;2023-05-10T05:35:22;3.95;;;3.85;;
9775;SDS011;4927;52.472;13.108;2023-05-10T05:36:23;5.55;;;4.57;;
9775;SDS011;4927;52.472;13.108;2023-05-10T05:37:25;7.50;;;4.20;;
9775;SDS011;4927;52.472;13.108;2023-05-10T05:38:28;5.43;;;4.60;;
9775;SDS011;4927;52.472;13.108;2023-05-10T05:39:29;4.80;;;4.37;;
9775;SDS011;4927;52.472;13.108;2023-05-10T05:40:31;5.78;;;5.40;;
9775;SDS011;4927;52.472;13.108;2023-05-10T05:41:33;4.37;;;4.18;;
9775;SDS011;4927;52.472;13.108;2023-05-10T05:42:35;5.15;;;4.53;;
9775;SDS011;4927;52.472;13.108;2023-05-10T05:43:36;4.43;;;4.12;;
9775;SDS011;4927;52.472;13.108;2023-05-10T05:44:39;5.47;;;5.10;;
9775;SDS011;4927;52.472;13.108;2023-05-10T05:45:41;3.95;;;3.65;;
9775;SDS011;4927;52.472;13.108;2023-05-10T05:46:44;4.35;;;4.20;;
9775;SDS011;4927;52.472;13.108;2023-05-10T05:47:46;4.62;;;4.53;;
9775;SDS011;4927;52.472;13.108;2023-05-10T05:48:48;5.28;;;4.95;;
9775;SDS011;4927;52.472;13.108;2023-05-10T05:49:50;4.40;;;4.10;;
9775;SDS011;4927;52.472;13.108;2023-05-10T05:50:54;4.18;;;3.97;;
9775;SDS011;4927;52.472;13.108;2023-05-10T05:52:00;4.07;;;3.80;;
9775;SDS011;4927;52.472;13.108;2023-05-10T05:53:02;4.32;;;4.12;;
9775;SDS011;4927;52.472;13.108;2023-05-10T05:54:04;7.10;;;4.55;;
9775;SDS011;4927;52.472;13.108;2023-05-10T05:55:06;4.50;;;4.25;;
9775;SDS011;4927;52.472;13.108;2023-05-10T05:56:08;4.45;;;4.00;;
9775;SDS011;4927;52.472;13.108;2023-05-10T05:57:10;3.92;;;3.83;;
9775;SDS011;4927;52.472;13.108;2023-05-10T05:58:12;4.12;;;4.03;;
9775;SDS011;4927;52.472;13.108;2023-05-10T05:59:14;4.30;;;3.72;;
9775;SDS011;4927;52.472;13.108;2023-05-10T06:00:16;7.93;;;4.68;;
9775;SDS011;4927;52.472;13.108;2023-05-10T06:01:18;4.03;;;3.90;;
9775;SDS011;4927;52.472;13.108;2023-05-10T06:02:20;4.05;;;3.85;;
9775;SDS011;4927;52.472;13.108;2023-05-10T06:03:23;4.18;;;3.97;;
9775;SDS011;4927;52.472;13.108;2023-05-10T06:04:25;4.35;;;4.00;;
9775;SDS011;4927;52.472;13.108;2023-05-10T06:05:26;4.10;;;4.00;;
9775;SDS011;4927;52.472;13.108;2023-05-10T06:06:29;5.00;;;4.28;;
9775;SDS011;4927;52.472;13.108;2023-05-10T06:07:30;4.50;;;4.30;;
9775;SDS011;4927;52.472;13.108;2023-05-10T06:08:33;4.07;;;3.70;;
9775;SDS011;4927;52.472;13.108;2023-05-10T06:09:35;6.25;;;3.87;;
9775;SDS011;4927;52.472;13.108;2023-05-10T06:10:36;4.00;;;3.70;;
9775;SDS011;4927;52.472;13.108;2023-05-10T06:11:39;4.07;;;3.87;;
9775;SDS011;4927;52.472;13.108;2023-05-10T06:12:41;3.65;;;3.45;;
9775;SDS011;4927;52.472;13.108;2023-05-10T06:13:44;3.62;;;3.53;;
9775;SDS011;4927;52.472;13.108;2023-05-10T06:14:46;3.72;;;3.37;;
9775;SDS011;4927;52.472;13.108;2023-05-10T06:15:47;4.55;;;4.15;;
9775;SDS011;4927;52.472;13.108;2023-05-10T06:16:49;3.90;;;3.70;;
9775;SDS011;4927;52.472;13.108;2023-05-10T06:17:51;3.47;;;3.37;;
9775;SDS011;4927;52.472;13.108;2023-05-10T06:18:53;3.55;;;3.45;;
9775;SDS011;4927;52.472;13.108;2023-05-10T06:19:55;7.12;;;3.58;;
9775;SDS011;4927;52.472;13.108;2023-05-10T06:20:57;6.62;;;3.30;;
9775;SDS011;4927;52.472;13.108;2023-05-10T06:21:59;3.25;;;3.05;;
9775;SDS011;4927;52.472;13.108;2023-05-10T06:23:00;3.72;;;3.53;;
9775;SDS011;4927;52.472;13.108;2023-05-10T06:24:03;3.55;;;3.42;;
9775;SDS011;4927;52.472;13.108;2023-05-10T06:25:06;4.50;;;3.60;;
9775;SDS011;4927;52.472;13.108;2023-05-10T06:26:09;3.40;;;3.30;;
9775;SDS011;4927;52.472;13.108;2023-05-10T06:27:11;3.70;;;3.40;;